createdAt,value
2023-10-26T00:02:13.936Z,14.19
2023-10-26T00:04:40.608Z,14.25
2023-10-26T00:07:07.707Z,14.29
2023-10-26T00:09:34.327Z,14.33
2023-10-26T00:12:00.983Z,14.34
2023-10-26T00:14:27.725Z,14.34
2023-10-26T00:16:54.309Z,14.32
2023-10-26T00:19:21.726Z,14.31
2023-10-26T00:21:48.673Z,14.35
2023-10-26T00:24:15.228Z,14.32
2023-10-26T00:26:41.993Z,14.32
2023-10-26T00:29:08.617Z,14.35
2023-10-26T00:31:35.769Z,14.34
2023-10-26T00:34:02.764Z,14.28
2023-10-26T00:36:29.412Z,14.30
2023-10-26T00:38:56.089Z,14.31
2023-10-26T00:41:22.826Z,14.29
2023-10-26T00:43:49.685Z,14.31
2023-10-26T00:46:16.432Z,14.37
2023-10-26T00:48:43.593Z,14.10
2023-10-26T00:51:10.299Z,14.14
2023-10-26T00:53:36.902Z,13.81
2023-10-26T00:56:03.671Z,13.92
2023-10-26T00:58:32.179Z,13.70
2023-10-26T01:00:59.128Z,13.41
2023-10-26T01:03:27.984Z,13.25
2023-10-26T01:05:54.568Z,12.67
2023-10-26T01:08:21.391Z,12.31
2023-10-26T01:10:47.929Z,12.28
2023-10-26T01:13:14.942Z,12.11
2023-10-26T01:15:41.889Z,11.94
2023-10-26T01:18:08.603Z,11.89
2023-10-26T01:20:35.330Z,12.08
2023-10-26T01:23:02.123Z,12.06
2023-10-26T01:25:28.735Z,11.84
2023-10-26T01:27:55.647Z,12.13
2023-10-26T01:30:22.794Z,12.28
2023-10-26T01:32:49.552Z,12.16
2023-10-26T01:35:16.404Z,12.17
2023-10-26T01:37:43.094Z,12.15
2023-10-26T01:40:10.220Z,12.08
2023-10-26T01:42:37.116Z,12.20
2023-10-26T01:45:03.971Z,12.33
2023-10-26T01:47:30.636Z,12.23
2023-10-26T01:49:57.271Z,12.09
2023-10-26T01:52:23.878Z,11.82
2023-10-26T01:54:50.802Z,12.01
2023-10-26T01:57:18.134Z,12.09
2023-10-26T01:59:44.843Z,11.96
2023-10-26T02:02:11.517Z,12.02
2023-10-26T02:04:38.119Z,11.98
2023-10-26T02:07:05.305Z,12.03
2023-10-26T02:09:32.248Z,12.02
2023-10-26T02:11:58.872Z,12.13
2023-10-26T02:14:25.453Z,11.87
2023-10-26T02:16:52.116Z,11.79
2023-10-26T02:19:19.840Z,11.81
2023-10-26T02:21:46.494Z,11.81
2023-10-26T02:24:13.229Z,12.02
2023-10-26T02:26:39.959Z,11.94
2023-10-26T02:29:06.596Z,11.80
2023-10-26T02:31:33.293Z,11.92
2023-10-26T02:33:59.887Z,11.50
2023-10-26T02:36:27.149Z,11.67
2023-10-26T02:38:53.806Z,11.75
2023-10-26T02:41:20.430Z,11.79
2023-10-26T02:43:49.974Z,11.84
2023-10-26T02:46:16.601Z,11.56
2023-10-26T02:48:43.289Z,11.79
2023-10-26T02:51:10.243Z,11.94
2023-10-26T02:53:36.856Z,11.92
2023-10-26T02:56:04.173Z,11.97
2023-10-26T02:58:31.179Z,12.03
2023-10-26T03:00:57.810Z,12.10
2023-10-26T03:03:24.825Z,11.92
2023-10-26T03:05:51.551Z,12.00
2023-10-26T03:08:18.289Z,11.78
2023-10-26T03:10:45.125Z,11.71
2023-10-26T03:13:12.838Z,11.77
2023-10-26T03:15:39.759Z,11.60
2023-10-26T03:18:08.016Z,11.56
2023-10-26T03:20:34.683Z,11.61
2023-10-26T03:23:01.305Z,11.24
2023-10-26T03:25:28.111Z,11.34
2023-10-26T03:27:55.816Z,11.26
2023-10-26T03:30:22.790Z,11.27
2023-10-26T03:32:49.459Z,11.30
2023-10-26T03:35:16.176Z,11.31
2023-10-26T03:37:42.771Z,11.36
2023-10-26T03:40:10.351Z,11.61
2023-10-26T03:42:36.941Z,11.54
2023-10-26T03:45:04.274Z,11.53
2023-10-26T03:47:30.889Z,11.51
2023-10-26T03:49:57.555Z,11.50
2023-10-26T03:52:24.215Z,11.54
2023-10-26T03:54:50.876Z,11.47
2023-10-26T03:57:17.548Z,11.47
2023-10-26T03:59:44.205Z,11.82
2023-10-26T04:02:12.286Z,11.90
2023-10-26T04:04:40.318Z,11.99
2023-10-26T04:07:06.956Z,12.08
2023-10-26T04:09:36.538Z,12.08
2023-10-26T04:12:03.942Z,12.22
2023-10-26T04:14:30.537Z,11.95
2023-10-26T04:16:57.198Z,11.85
2023-10-26T04:19:23.746Z,11.71
2023-10-26T04:21:50.430Z,11.71
2023-10-26T04:24:17.426Z,11.72
2023-10-26T04:26:44.286Z,11.77
2023-10-26T04:29:10.875Z,11.92
2023-10-26T04:31:37.538Z,12.01
2023-10-26T04:34:04.968Z,11.83
2023-10-26T04:36:31.650Z,11.43
2023-10-26T04:38:58.813Z,11.87
2023-10-26T04:41:25.562Z,11.78
2023-10-26T04:43:52.216Z,11.58
2023-10-26T04:46:18.841Z,11.64
2023-10-26T04:48:45.877Z,11.58
2023-10-26T04:51:12.839Z,11.32
2023-10-26T04:53:39.485Z,11.24
2023-10-26T04:56:06.575Z,11.21
2023-10-26T04:58:33.403Z,11.32
2023-10-26T05:01:01.092Z,11.12
2023-10-26T05:03:27.819Z,11.15
2023-10-26T05:05:54.904Z,11.12
2023-10-26T05:08:21.464Z,11.27
2023-10-26T05:10:48.326Z,11.13
2023-10-26T05:13:14.927Z,11.31
2023-10-26T05:15:44.691Z,11.06
2023-10-26T05:18:11.603Z,11.25
2023-10-26T05:20:38.765Z,11.21
2023-10-26T05:23:06.580Z,11.17
2023-10-26T05:25:33.221Z,11.00
2023-10-26T05:28:01.147Z,10.93
2023-10-26T05:30:27.891Z,10.75
2023-10-26T05:32:57.526Z,10.71
2023-10-26T05:35:24.240Z,10.64
2023-10-26T05:37:50.777Z,10.66
2023-10-26T05:40:17.449Z,10.52
2023-10-26T05:42:44.000Z,10.77
2023-10-26T05:45:11.179Z,10.76
2023-10-26T05:47:37.868Z,10.81
2023-10-26T05:50:05.952Z,10.63
2023-10-26T05:52:32.554Z,10.87
2023-10-26T05:54:59.420Z,10.95
2023-10-26T05:57:28.983Z,10.87
2023-10-26T05:59:55.884Z,10.80
2023-10-26T06:02:22.629Z,10.98
2023-10-26T06:04:50.702Z,10.80
2023-10-26T06:07:17.348Z,10.84
2023-10-26T06:09:44.006Z,10.70
2023-10-26T06:12:10.956Z,10.77
2023-10-26T06:14:38.308Z,10.89
2023-10-26T06:17:05.136Z,10.93
2023-10-26T06:19:33.073Z,10.84
2023-10-26T06:22:01.227Z,11.04
2023-10-26T06:24:27.953Z,11.23
2023-10-26T06:26:54.513Z,11.24
2023-10-26T06:29:21.109Z,11.26
2023-10-26T06:31:47.918Z,11.28
2023-10-26T06:34:14.575Z,11.31
2023-10-26T06:36:41.339Z,11.34
2023-10-26T06:39:08.714Z,11.40
2023-10-26T06:41:35.388Z,11.25
2023-10-26T06:44:02.072Z,11.30
2023-10-26T06:46:28.736Z,11.36
2023-10-26T06:48:55.746Z,11.36
2023-10-26T06:51:23.671Z,11.45
2023-10-26T06:53:50.351Z,11.63
2023-10-26T06:56:16.899Z,11.41
2023-10-26T06:58:44.582Z,11.57
2023-10-26T07:01:20.784Z,11.39
2023-10-26T07:03:49.570Z,11.49
2023-10-26T07:06:16.738Z,11.83
2023-10-26T07:08:43.381Z,11.87
2023-10-26T07:11:09.990Z,11.99
2023-10-26T07:13:36.729Z,12.09
2023-10-26T07:16:04.601Z,11.83
2023-10-26T07:18:31.436Z,11.93
2023-10-26T07:20:58.522Z,11.91
2023-10-26T07:23:25.180Z,11.78
2023-10-26T07:25:51.813Z,12.13
2023-10-26T07:28:18.463Z,12.27
2023-10-26T07:30:45.328Z,11.80
2023-10-26T07:33:12.322Z,11.67
2023-10-26T07:35:42.277Z,11.79
2023-10-26T07:38:35.208Z,11.88
2023-10-26T07:40:57.832Z,11.87
2023-10-26T07:43:24.522Z,11.99
2023-10-26T07:45:52.534Z,11.84
2023-10-26T07:48:19.722Z,11.89
2023-10-26T07:50:46.547Z,11.64
2023-10-26T07:53:15.142Z,11.69
2023-10-26T07:55:42.001Z,11.90
2023-10-26T07:58:08.595Z,11.91
2023-10-26T08:00:37.244Z,12.27
2023-10-26T08:03:04.062Z,12.21
2023-10-26T08:05:30.849Z,12.42
2023-10-26T08:07:57.596Z,12.18
2023-10-26T08:10:27.573Z,12.27
2023-10-26T08:12:54.634Z,12.28
2023-10-26T08:16:10.758Z,12.28
2023-10-26T08:18:08.647Z,12.15
2023-10-26T08:20:35.462Z,12.17
2023-10-26T08:23:04.969Z,12.32
2023-10-26T08:25:38.096Z,12.10
2023-10-26T08:28:05.094Z,12.30
2023-10-26T08:30:31.735Z,12.30
2023-10-26T08:32:58.467Z,12.32
2023-10-26T08:35:25.265Z,12.35
2023-10-26T08:37:52.359Z,12.22
2023-10-26T08:40:19.436Z,12.00
2023-10-26T08:42:48.914Z,12.35
2023-10-26T08:45:25.508Z,11.95
2023-10-26T08:47:52.242Z,12.18
2023-10-26T08:50:22.963Z,11.95
2023-10-26T08:52:49.841Z,12.32
2023-10-26T08:55:16.955Z,11.95
2023-10-26T08:57:53.522Z,12.23
2023-10-26T09:00:20.948Z,12.07
2023-10-26T09:02:49.492Z,12.02
2023-10-26T09:05:16.539Z,11.82
2023-10-26T09:07:43.369Z,11.95
2023-10-26T09:10:11.057Z,12.04
2023-10-26T09:12:37.696Z,12.10
2023-10-26T09:15:07.884Z,12.37
2023-10-26T09:17:34.869Z,12.71
2023-10-26T09:20:22.832Z,12.79
2023-10-26T09:22:50.022Z,13.13
2023-10-26T09:25:16.872Z,12.75
2023-10-26T09:27:44.191Z,12.95
2023-10-26T09:30:40.618Z,12.75
2023-10-26T09:33:09.815Z,12.70
2023-10-26T09:35:36.479Z,12.89
2023-10-26T09:38:06.977Z,12.64
2023-10-26T09:40:33.701Z,12.77
2023-10-26T09:43:00.330Z,12.99
2023-10-26T09:45:27.075Z,12.65
2023-10-26T09:47:53.966Z,12.97
2023-10-26T09:50:21.124Z,13.09
2023-10-26T09:52:47.928Z,13.51
2023-10-26T09:55:15.016Z,14.29
2023-10-26T09:58:06.239Z,14.48
2023-10-26T10:00:34.665Z,14.60
2023-10-26T10:03:14.839Z,14.12
2023-10-26T10:05:42.863Z,14.58
2023-10-26T10:08:09.679Z,15.08
2023-10-26T10:10:36.542Z,15.56
2023-10-26T10:13:03.250Z,15.90
2023-10-26T10:15:42.044Z,15.80
2023-10-26T10:18:09.772Z,16.21
2023-10-26T10:20:37.173Z,15.86
2023-10-26T10:23:04.553Z,15.42
2023-10-26T10:25:49.609Z,14.09
2023-10-26T10:28:16.357Z,14.08
2023-10-26T10:30:52.684Z,14.05
2023-10-26T10:33:23.792Z,13.78
2023-10-26T10:35:58.280Z,14.46
2023-10-26T10:38:25.933Z,15.36
2023-10-26T10:40:55.354Z,15.83
2023-10-26T10:43:35.511Z,16.14
2023-10-26T10:46:14.861Z,16.00
2023-10-26T10:49:09.397Z,15.43
2023-10-26T10:51:40.371Z,15.08
2023-10-26T10:54:24.110Z,14.59
2023-10-26T10:57:05.434Z,14.45
2023-10-26T10:59:32.057Z,14.29
2023-10-26T11:02:11.330Z,13.87
2023-10-26T11:05:12.617Z,14.06
2023-10-26T11:07:42.725Z,13.82
2023-10-26T11:10:09.545Z,13.80
2023-10-26T11:12:36.542Z,13.68
2023-10-26T11:15:04.945Z,13.65
2023-10-26T11:17:31.663Z,13.46
2023-10-26T11:19:58.443Z,13.99
2023-10-26T11:22:25.071Z,14.03
2023-10-26T11:24:52.006Z,14.04
2023-10-26T11:27:20.709Z,14.16
2023-10-26T11:30:01.070Z,13.86
2023-10-26T11:32:29.852Z,13.63
2023-10-26T11:35:09.452Z,13.77
2023-10-26T11:37:37.013Z,13.73
2023-10-26T11:40:04.977Z,14.06
2023-10-26T11:43:04.563Z,14.15
2023-10-26T11:45:31.336Z,14.23
2023-10-26T11:48:01.439Z,14.29
2023-10-26T11:50:33.057Z,14.48
2023-10-26T11:53:04.248Z,14.45
2023-10-26T11:55:33.071Z,14.39
2023-10-26T11:58:00.408Z,14.25
2023-10-26T12:00:27.677Z,14.08
2023-10-26T12:02:56.004Z,14.12
2023-10-26T12:05:24.186Z,13.84
2023-10-26T12:07:50.964Z,14.19
2023-10-26T12:10:18.738Z,14.03
2023-10-26T12:12:46.073Z,13.67
2023-10-26T12:15:12.869Z,13.76
2023-10-26T12:17:39.595Z,14.22
2023-10-26T12:20:06.876Z,14.68
2023-10-26T12:22:33.660Z,15.13
2023-10-26T12:25:00.377Z,15.21
2023-10-26T12:27:27.055Z,14.68
2023-10-26T12:29:53.662Z,14.49
2023-10-26T12:32:21.120Z,14.38
2023-10-26T12:34:48.026Z,14.19
2023-10-26T12:37:15.776Z,14.50
2023-10-26T12:39:42.642Z,14.63
2023-10-26T12:42:09.439Z,14.53
2023-10-26T12:44:39.899Z,14.53
2023-10-26T12:47:07.080Z,14.59
2023-10-26T12:49:36.606Z,14.08
2023-10-26T12:52:03.508Z,13.83
2023-10-26T12:54:30.160Z,13.84
2023-10-26T12:56:56.833Z,13.53
2023-10-26T12:59:23.494Z,13.01
2023-10-26T13:01:51.563Z,13.24
2023-10-26T13:04:18.423Z,13.19
2023-10-26T13:06:45.089Z,13.34
2023-10-26T13:09:11.775Z,12.99
2023-10-26T13:11:38.387Z,13.59
2023-10-26T13:14:07.643Z,13.23
2023-10-26T13:16:50.095Z,13.65
2023-10-26T13:19:23.260Z,14.08
2023-10-26T13:21:49.997Z,14.21
2023-10-26T13:24:16.733Z,14.53
2023-10-26T13:26:43.376Z,14.80
2023-10-26T13:29:10.316Z,14.67
2023-10-26T13:31:37.000Z,14.55
2023-10-26T13:34:03.716Z,14.95
2023-10-26T13:36:30.381Z,14.94
2023-10-26T13:38:57.520Z,15.01
2023-10-26T13:41:25.390Z,15.00
2023-10-26T13:43:52.347Z,14.97
2023-10-26T13:46:19.033Z,14.99
2023-10-26T13:48:48.561Z,14.99
2023-10-26T13:51:19.129Z,14.98
2023-10-26T13:53:45.862Z,14.88
2023-10-26T13:56:12.544Z,15.17
2023-10-26T13:58:39.189Z,15.11
2023-10-26T14:01:13.118Z,15.25
2023-10-26T14:03:39.909Z,15.23
2023-10-26T14:06:11.007Z,15.36
2023-10-26T14:08:37.942Z,15.16
2023-10-26T14:11:05.183Z,15.02
2023-10-26T14:13:31.759Z,15.03
2023-10-26T14:15:58.615Z,14.93
2023-10-26T14:18:25.390Z,14.94
2023-10-26T14:20:52.466Z,14.89
2023-10-26T14:23:20.800Z,14.87
2023-10-26T14:25:47.510Z,14.86
2023-10-26T14:28:14.178Z,14.80
2023-10-26T14:30:40.835Z,14.82
2023-10-26T14:33:07.577Z,14.77
2023-10-26T14:35:34.151Z,14.83
2023-10-26T14:38:02.465Z,14.81
2023-10-26T14:40:30.185Z,14.72
2023-10-26T14:42:57.389Z,14.33
2023-10-26T14:45:26.400Z,14.39
2023-10-26T14:47:53.411Z,14.05
2023-10-26T14:50:21.341Z,14.21
2023-10-26T14:52:48.046Z,14.22
2023-10-26T14:55:14.919Z,13.84
2023-10-26T14:57:41.664Z,14.03
2023-10-26T15:00:09.053Z,14.21
2023-10-26T15:02:35.755Z,14.18
2023-10-26T15:05:02.549Z,13.93
2023-10-26T15:07:29.263Z,14.18
2023-10-26T15:10:22.398Z,14.20
2023-10-26T15:12:42.610Z,14.27
2023-10-26T15:15:09.642Z,14.43
2023-10-26T15:17:36.398Z,14.28
2023-10-26T15:20:04.382Z,13.44
2023-10-26T15:22:31.659Z,13.66
2023-10-26T15:25:07.377Z,13.77
2023-10-26T15:27:35.292Z,13.95
2023-10-26T15:30:02.252Z,14.09
2023-10-26T15:32:30.922Z,14.18
2023-10-26T15:34:58.847Z,14.28
2023-10-26T15:37:27.554Z,14.24
2023-10-26T15:39:57.104Z,14.22
2023-10-26T15:42:24.799Z,14.14
2023-10-26T15:44:53.210Z,14.13
2023-10-26T15:47:23.349Z,14.02
2023-10-26T15:49:52.397Z,14.07
2023-10-26T15:52:19.141Z,14.05
2023-10-26T15:54:46.118Z,13.93
2023-10-26T15:57:13.290Z,13.79
2023-10-26T15:59:40.126Z,13.61
2023-10-26T16:02:09.942Z,13.58
2023-10-26T16:04:40.730Z,13.63
2023-10-26T16:07:07.429Z,13.56
2023-10-26T16:09:37.391Z,13.29
2023-10-26T16:12:05.364Z,13.44
2023-10-26T16:14:32.082Z,13.46
2023-10-26T16:17:07.009Z,13.11
2023-10-26T16:19:38.259Z,13.28
2023-10-26T16:22:07.586Z,13.38
2023-10-26T16:24:38.753Z,13.38
2023-10-26T16:27:05.641Z,13.16
2023-10-26T16:29:36.096Z,13.18
2023-10-26T16:32:04.169Z,13.32
2023-10-26T16:34:31.055Z,13.38
2023-10-26T16:37:01.015Z,13.27
2023-10-26T16:39:28.674Z,13.39
2023-10-26T16:41:56.799Z,13.48
2023-10-26T16:44:23.806Z,13.40
2023-10-26T16:46:51.901Z,13.55
2023-10-26T16:49:19.150Z,13.61
2023-10-26T16:51:46.267Z,13.55
2023-10-26T16:54:13.140Z,13.55
2023-10-26T16:56:40.268Z,13.61
2023-10-26T16:59:11.996Z,13.41
2023-10-26T17:01:41.692Z,13.53
2023-10-26T17:04:08.477Z,13.41
2023-10-26T17:06:35.438Z,13.42
2023-10-26T17:09:02.257Z,13.40
2023-10-26T17:11:28.920Z,13.55
2023-10-26T17:13:55.645Z,13.59
2023-10-26T17:16:22.325Z,13.64
2023-10-26T17:18:49.393Z,13.71
2023-10-26T17:21:18.484Z,13.71
2023-10-26T17:23:45.161Z,13.74
2023-10-26T17:29:37.587Z,13.84
2023-10-26T17:32:04.513Z,13.84
2023-10-26T17:34:31.269Z,13.87
2023-10-26T17:36:57.927Z,13.86
2023-10-26T17:39:25.502Z,13.82
2023-10-26T17:41:59.700Z,13.85
2023-10-26T17:44:26.429Z,13.82
2023-10-26T17:46:53.223Z,13.88
2023-10-26T17:49:22.792Z,13.89
2023-10-26T17:51:49.829Z,13.93
2023-10-26T17:54:16.604Z,13.93
2023-10-26T17:56:43.362Z,13.97
2023-10-26T17:59:10.300Z,13.99
2023-10-26T18:01:41.733Z,13.82
2023-10-26T18:04:08.742Z,13.93
2023-10-26T18:06:35.919Z,13.95
2023-10-26T18:09:02.585Z,14.00
2023-10-26T18:11:29.462Z,14.02
2023-10-26T18:14:01.719Z,14.05
2023-10-26T18:16:32.745Z,14.06
2023-10-26T18:19:00.464Z,13.93
2023-10-26T18:21:28.220Z,13.98
2023-10-26T18:23:57.438Z,13.93
2023-10-26T18:26:24.227Z,13.94
2023-10-26T18:28:52.541Z,13.94
2023-10-26T18:31:22.333Z,13.85
2023-10-26T18:33:53.056Z,13.87
2023-10-26T18:36:20.968Z,13.84
2023-10-26T18:38:48.209Z,13.91
2023-10-26T18:41:23.702Z,13.86
2023-10-26T18:43:50.911Z,13.73
2023-10-26T18:46:17.721Z,13.90
2023-10-26T18:48:44.609Z,13.73
2023-10-26T18:51:12.109Z,13.77
2023-10-26T18:53:40.585Z,13.89
2023-10-26T18:56:24.360Z,13.80
2023-10-26T18:58:51.345Z,13.90
2023-10-26T19:01:22.687Z,13.88
2023-10-26T19:04:01.506Z,14.04
2023-10-26T19:06:52.979Z,13.82
2023-10-26T19:09:21.036Z,13.70
2023-10-26T19:11:48.009Z,13.60
2023-10-26T19:14:15.346Z,13.80
2023-10-26T19:16:43.029Z,13.87
2023-10-26T19:19:09.930Z,13.90
2023-10-26T19:21:36.963Z,13.96
2023-10-26T19:24:04.804Z,13.96
2023-10-26T19:26:31.796Z,13.99
2023-10-26T19:28:59.971Z,13.95
2023-10-26T19:31:26.740Z,13.74
2023-10-26T19:33:53.540Z,13.82
2023-10-26T19:36:20.787Z,13.87
2023-10-26T19:38:47.491Z,13.96
2023-10-26T19:41:15.728Z,13.59
2023-10-26T19:43:42.462Z,13.97
2023-10-26T19:46:09.132Z,13.95
2023-10-26T19:48:35.830Z,13.96
2023-10-26T19:51:04.640Z,13.97
2023-10-26T19:53:36.817Z,13.95
2023-10-26T19:56:04.612Z,13.95
2023-10-26T19:58:31.729Z,13.98
2023-10-26T20:00:58.875Z,14.08
2023-10-26T20:03:25.989Z,13.91
2023-10-26T20:05:53.051Z,13.96
2023-10-26T20:08:28.269Z,14.02
2023-10-26T20:10:55.427Z,13.83
2023-10-26T20:13:25.494Z,13.88
2023-10-26T20:15:53.218Z,13.96
2023-10-26T20:18:22.883Z,13.98
2023-10-26T20:20:49.905Z,14.08
2023-10-26T20:23:18.448Z,14.11
2023-10-26T20:25:45.543Z,14.18
2023-10-26T20:28:13.426Z,14.19
2023-10-26T20:30:40.673Z,14.13
2023-10-26T20:33:07.938Z,14.23
2023-10-26T20:35:35.446Z,14.24
2023-10-26T20:38:02.540Z,14.25
2023-10-26T20:40:29.918Z,14.29
2023-10-26T20:42:57.463Z,14.23
2023-10-26T20:45:24.350Z,13.96
2023-10-26T20:47:51.037Z,13.81
2023-10-26T20:50:18.140Z,14.04
2023-10-26T20:52:45.931Z,14.01
2023-10-26T20:55:12.630Z,14.14
2023-10-26T20:57:39.309Z,14.15
2023-10-26T21:00:06.863Z,14.22
2023-10-26T21:02:37.246Z,14.26
2023-10-26T21:05:08.781Z,14.34
2023-10-26T21:07:37.080Z,14.26
2023-10-26T21:10:04.931Z,14.28
2023-10-26T21:12:34.011Z,14.30
2023-10-26T21:15:00.695Z,14.21
2023-10-26T21:17:30.270Z,14.05
2023-10-26T21:19:56.933Z,14.22
2023-10-26T21:22:23.743Z,14.03
2023-10-26T21:24:52.843Z,14.09
2023-10-26T21:27:19.620Z,14.17
2023-10-26T21:29:47.461Z,14.12
2023-10-26T21:32:14.545Z,14.20
2023-10-26T21:34:41.356Z,14.07
2023-10-26T21:37:08.327Z,14.17
2023-10-26T21:39:35.065Z,13.49
2023-10-26T21:42:04.381Z,13.82
2023-10-26T21:44:32.960Z,13.69
2023-10-26T21:47:00.102Z,13.74
2023-10-26T21:49:26.771Z,13.84
2023-10-26T21:51:53.539Z,13.30
2023-10-26T21:54:22.720Z,13.66
2023-10-26T21:56:49.729Z,13.64
2023-10-26T21:59:16.368Z,13.78
2023-10-26T22:01:43.290Z,13.60
2023-10-26T22:04:21.978Z,13.65
2023-10-26T22:06:49.422Z,13.78
2023-10-26T22:09:18.258Z,13.57
2023-10-26T22:11:45.368Z,13.68
2023-10-26T22:14:12.251Z,13.75
2023-10-26T22:16:40.400Z,13.60
2023-10-26T22:19:07.679Z,13.70
2023-10-26T22:21:34.968Z,14.00
2023-10-26T22:24:01.684Z,14.11
2023-10-26T22:26:29.590Z,14.26
2023-10-26T22:28:56.309Z,14.33
2023-10-26T22:31:23.057Z,14.40
2023-10-26T22:33:49.769Z,14.49
2023-10-26T22:36:16.499Z,14.44
2023-10-26T22:38:43.239Z,14.50
2023-10-26T22:41:11.398Z,14.52
2023-10-26T22:43:38.500Z,14.57
2023-10-26T22:46:05.213Z,14.60
2023-10-26T22:48:31.838Z,14.63
2023-10-26T22:50:59.338Z,14.62
2023-10-26T22:53:26.730Z,14.65
2023-10-26T22:55:53.549Z,14.61
2023-10-26T22:58:20.281Z,14.61
2023-10-26T23:00:46.888Z,14.61
2023-10-26T23:03:15.302Z,14.50
2023-10-26T23:05:43.748Z,14.58
2023-10-26T23:08:11.942Z,14.58
2023-10-26T23:10:38.798Z,14.60
2023-10-26T23:13:05.457Z,14.62
2023-10-26T23:15:32.139Z,14.45
2023-10-26T23:17:58.884Z,14.43
2023-10-26T23:20:25.786Z,14.49
2023-10-26T23:22:52.763Z,14.50
2023-10-26T23:25:19.443Z,14.49
2023-10-26T23:27:46.273Z,14.39
2023-10-26T23:30:13.387Z,14.37
2023-10-26T23:32:40.023Z,14.38
2023-10-26T23:35:07.231Z,14.42
2023-10-26T23:37:33.850Z,14.42
2023-10-26T23:40:00.489Z,14.45
2023-10-26T23:42:27.156Z,14.34
2023-10-26T23:44:56.805Z,14.36
2023-10-26T23:47:23.734Z,14.29
2023-10-26T23:49:50.427Z,14.12
2023-10-26T23:52:17.194Z,14.10
2023-10-26T23:54:43.829Z,13.99
2023-10-26T23:57:10.533Z,13.99
2023-10-26T23:59:37.152Z,14.04
